createdAt,value
2024-02-22T00:00:58.587Z,2.85
2024-02-22T01:33:04.613Z,5.13
2024-02-22T01:43:51.438Z,6.05
2024-02-22T02:08:08.073Z,5.53
2024-02-22T02:10:55.534Z,5.82
2024-02-22T02:13:41.308Z,5.43
2024-02-22T02:16:29.933Z,5.65
2024-02-22T02:22:34.901Z,6.15
2024-02-22T02:25:21.443Z,5.90
2024-02-22T02:28:07.678Z,4.43
2024-02-22T02:41:48.214Z,4.22
2024-02-22T02:44:33.731Z,4.30
2024-02-22T02:47:20.399Z,5.10
2024-02-22T02:50:08.459Z,5.30
2024-02-22T02:52:59.310Z,5.35
2024-02-22T02:55:44.782Z,5.35
2024-02-22T02:58:30.398Z,6.03
2024-02-22T03:04:22.656Z,5.38
2024-02-22T03:07:10.145Z,4.32
2024-02-22T03:09:56.724Z,4.50
2024-02-22T03:15:28.157Z,5.50
2024-02-22T03:18:14.851Z,4.88
2024-02-22T03:21:01.864Z,6.03
2024-02-22T03:23:54.398Z,5.03
2024-02-22T03:26:40.077Z,5.07
2024-02-22T03:29:27.594Z,5.35
2024-02-22T03:32:13.021Z,5.20
2024-02-22T03:35:00.193Z,5.07
2024-02-22T03:37:45.864Z,4.00
2024-02-22T03:40:37.608Z,4.35
2024-02-22T03:56:54.681Z,4.88
2024-02-22T03:59:48.824Z,4.70
2024-02-22T04:05:17.310Z,4.30
2024-02-22T04:08:03.566Z,3.72
2024-02-22T04:10:49.351Z,3.65
2024-02-22T04:13:38.546Z,4.10
2024-02-22T04:16:24.356Z,4.13
2024-02-22T04:19:10.391Z,4.18
2024-02-22T04:24:32.480Z,3.42
2024-02-22T04:27:18.100Z,4.22
2024-02-22T04:30:04.419Z,5.93
2024-02-22T04:32:50.157Z,4.68
2024-02-22T04:35:36.450Z,4.80
2024-02-22T04:38:23.723Z,4.63
2024-02-22T04:41:10.509Z,4.38
2024-02-22T04:43:56.136Z,4.07
2024-02-22T04:49:45.680Z,4.38
2024-02-22T04:52:31.697Z,5.05
2024-02-22T04:55:18.724Z,4.32
2024-02-22T04:58:05.745Z,4.25
2024-02-22T05:00:51.396Z,4.25
2024-02-22T05:03:36.862Z,4.85
2024-02-22T05:06:23.266Z,3.65
2024-02-22T05:09:13.765Z,4.82
2024-02-22T05:11:59.358Z,3.83
2024-02-22T05:14:45.989Z,3.33
2024-02-22T05:17:31.593Z,3.92
2024-02-22T05:20:19.449Z,4.60
2024-02-22T05:23:06.947Z,4.10
2024-02-22T05:25:54.712Z,4.88
2024-02-22T05:28:43.244Z,4.38
2024-02-22T05:31:29.997Z,4.70
2024-02-22T05:34:18.509Z,4.40
2024-02-22T05:37:09.430Z,4.05
2024-02-22T05:39:56.768Z,3.60
2024-02-22T05:42:43.062Z,3.15
2024-02-22T05:45:50.473Z,4.30
2024-02-22T05:48:35.716Z,4.32
2024-02-22T05:51:21.619Z,4.07
2024-02-22T05:54:12.596Z,3.78
2024-02-22T05:56:58.208Z,3.25
2024-02-22T05:59:43.657Z,3.25
2024-02-22T06:02:31.248Z,4.70
2024-02-22T06:05:22.171Z,4.13
2024-02-22T06:08:08.735Z,3.63
2024-02-22T06:10:59.085Z,3.97
2024-02-22T06:13:47.169Z,4.30
2024-02-22T06:16:36.344Z,4.55
2024-02-22T06:19:21.599Z,4.05
2024-02-22T06:22:07.156Z,3.80
2024-02-22T06:24:52.734Z,4.43
2024-02-22T06:27:42.820Z,3.83
2024-02-22T06:30:28.915Z,3.35
2024-02-22T06:33:17.430Z,3.33
2024-02-22T06:36:03.401Z,4.30
2024-02-22T06:38:51.679Z,4.80
2024-02-22T06:41:37.606Z,5.18
2024-02-22T06:44:23.147Z,5.18
2024-02-22T06:47:08.646Z,4.50
2024-02-22T06:49:54.315Z,4.53
2024-02-22T06:52:54.887Z,4.53
2024-02-22T06:55:41.105Z,4.63
2024-02-22T06:58:26.911Z,4.10
2024-02-22T07:01:15.351Z,3.80
2024-02-22T07:04:01.666Z,5.63
2024-02-22T07:06:46.895Z,3.80
2024-02-22T07:09:32.749Z,3.45
2024-02-22T07:12:18.947Z,3.22
2024-02-22T07:15:11.962Z,3.45
2024-02-22T07:17:57.733Z,3.33
2024-02-22T07:20:43.572Z,3.92
2024-02-22T07:23:29.159Z,2.92
2024-02-22T07:26:15.327Z,3.42
2024-02-22T07:29:13.859Z,3.17
2024-02-22T07:32:02.559Z,3.40
2024-02-22T07:34:49.969Z,3.63
2024-02-22T07:37:38.914Z,3.58
2024-02-22T07:40:24.659Z,3.97
2024-02-22T07:43:11.158Z,3.90
2024-02-22T07:45:58.677Z,3.60
2024-02-22T07:48:44.717Z,3.70
2024-02-22T07:51:33.479Z,3.95
2024-02-22T07:54:21.547Z,3.55
2024-02-22T08:02:32.541Z,3.90
2024-02-22T08:05:18.579Z,3.50
2024-02-22T08:10:46.118Z,3.10
2024-02-22T08:27:19.061Z,3.38
2024-02-22T08:38:28.692Z,4.47
2024-02-22T08:41:24.130Z,6.88
2024-02-22T08:44:09.916Z,6.05
2024-02-22T08:46:55.298Z,5.10
2024-02-22T08:49:40.940Z,5.55
2024-02-22T08:52:26.491Z,5.13
2024-02-22T09:22:03.927Z,4.25
2024-02-22T09:24:49.173Z,4.28
2024-02-22T09:27:34.835Z,3.65
2024-02-22T09:30:22.272Z,3.83
2024-02-22T09:33:09.259Z,3.25
2024-02-22T09:35:54.944Z,3.15
2024-02-22T09:38:40.593Z,2.75
2024-02-22T09:41:30.447Z,3.03
2024-02-22T09:44:16.208Z,3.05
2024-02-22T09:47:04.372Z,2.80
2024-02-22T09:57:58.200Z,3.20
2024-02-22T10:00:47.368Z,6.38
2024-02-22T10:06:23.508Z,3.28
2024-02-22T10:11:47.105Z,3.20
2024-02-22T10:17:11.520Z,5.20
2024-02-22T10:20:08.744Z,3.10
2024-02-22T10:31:06.496Z,2.13
2024-02-22T10:42:00.410Z,1.85
2024-02-22T10:44:48.204Z,1.73
2024-02-22T10:58:27.539Z,1.45
2024-02-22T11:01:15.366Z,1.80
2024-02-22T11:04:04.281Z,1.80
2024-02-22T11:06:50.245Z,1.88
2024-02-22T11:09:42.902Z,1.90
2024-02-22T11:12:32.375Z,2.30
2024-02-22T11:23:35.143Z,2.30
2024-02-22T11:26:20.615Z,2.55
2024-02-22T11:29:06.911Z,3.00
2024-02-22T11:31:52.355Z,2.95
2024-02-22T11:34:38.095Z,3.10
2024-02-22T11:37:23.662Z,2.90
2024-02-22T11:40:11.661Z,2.70
2024-02-22T11:42:57.557Z,4.25
2024-02-22T11:45:43.056Z,3.33
2024-02-22T11:48:29.965Z,2.72
2024-02-22T11:51:15.542Z,2.92
2024-02-22T11:54:00.751Z,2.78
2024-02-22T11:56:47.013Z,2.65
2024-02-22T11:59:32.960Z,2.72
2024-02-22T12:02:19.948Z,3.00
2024-02-22T12:05:08.488Z,3.00
2024-02-22T12:07:54.530Z,2.58
2024-02-22T12:10:43.184Z,2.50
2024-02-22T12:13:28.720Z,2.72
2024-02-22T12:16:14.829Z,2.25
2024-02-22T12:19:00.765Z,2.50
2024-02-22T12:21:50.327Z,2.30
2024-02-22T12:24:36.058Z,2.80
2024-02-22T12:27:21.731Z,2.25
2024-02-22T12:30:07.733Z,2.50
2024-02-22T12:32:53.880Z,3.08
2024-02-22T12:35:39.498Z,2.92
2024-02-22T12:38:24.984Z,3.00
2024-02-22T12:41:10.220Z,2.90
2024-02-22T12:43:57.319Z,4.00
2024-02-22T12:46:43.225Z,3.88
2024-02-22T12:49:30.124Z,3.13
2024-02-22T12:52:15.546Z,3.60
2024-02-22T12:55:01.328Z,3.50
2024-02-22T12:57:46.610Z,3.80
2024-02-22T13:00:36.131Z,3.53
2024-02-22T13:03:25.121Z,3.90
2024-02-22T13:06:12.848Z,4.28
2024-02-22T13:08:58.168Z,4.30
2024-02-22T13:11:43.812Z,4.35
2024-02-22T13:14:28.993Z,4.43
2024-02-22T13:17:14.571Z,4.60
2024-02-22T13:20:00.118Z,4.35
2024-02-22T13:22:45.500Z,4.80
2024-02-22T13:25:31.014Z,4.22
2024-02-22T13:28:16.521Z,4.72
2024-02-22T13:31:02.234Z,4.60
2024-02-22T13:33:49.462Z,4.20
2024-02-22T13:36:35.582Z,4.60
2024-02-22T13:39:20.697Z,4.72
2024-02-22T13:42:06.475Z,4.95
2024-02-22T13:44:51.899Z,4.13
2024-02-22T13:47:37.152Z,4.53
2024-02-22T13:50:23.925Z,4.15
2024-02-22T13:53:09.757Z,4.55
2024-02-22T13:55:55.132Z,4.22
2024-02-22T13:58:41.081Z,3.88
2024-02-22T14:01:26.463Z,4.10
2024-02-22T14:04:11.741Z,4.07
2024-02-22T14:06:57.444Z,4.22
2024-02-22T14:09:42.914Z,4.15
2024-02-22T14:12:29.239Z,4.00
2024-02-22T14:15:14.528Z,3.70
2024-02-22T14:18:00.087Z,4.05
2024-02-22T14:20:46.677Z,3.97
2024-02-22T14:23:32.043Z,3.33
2024-02-22T14:26:17.484Z,3.85
2024-02-22T14:29:03.172Z,3.50
2024-02-22T14:31:50.436Z,3.58
2024-02-22T14:34:36.157Z,3.20
2024-02-22T14:37:21.203Z,3.22
2024-02-22T14:40:08.495Z,3.05
2024-02-22T14:42:53.704Z,2.78
2024-02-22T14:45:39.150Z,2.75
2024-02-22T14:48:24.662Z,2.88
2024-02-22T14:51:26.819Z,2.88
2024-02-22T14:54:12.430Z,2.50
2024-02-22T14:56:57.639Z,3.08
2024-02-22T14:59:42.765Z,2.35
2024-02-22T15:02:29.965Z,2.67
2024-02-22T15:05:16.011Z,2.75
2024-02-22T15:08:01.502Z,2.40
2024-02-22T15:10:47.268Z,1.85
2024-02-22T15:13:32.542Z,2.17
2024-02-22T15:16:18.145Z,2.10
2024-02-22T15:19:03.951Z,1.98
2024-02-22T15:21:49.156Z,1.77
2024-02-22T15:24:37.764Z,1.77
2024-02-22T15:27:25.170Z,1.70
2024-02-22T15:30:11.658Z,1.55
2024-02-22T15:32:57.897Z,1.63
2024-02-22T15:35:43.427Z,1.48
2024-02-22T15:38:28.555Z,1.30
2024-02-22T15:41:14.150Z,1.00
2024-02-22T15:44:00.668Z,1.48
2024-02-22T15:46:46.628Z,1.40
2024-02-22T15:49:32.149Z,1.08
2024-02-22T15:52:17.403Z,1.40
2024-02-22T15:55:02.744Z,1.23
2024-02-22T15:57:49.282Z,1.35
2024-02-22T16:00:34.717Z,1.60
2024-02-22T16:03:20.233Z,1.40
2024-02-22T16:06:08.113Z,1.63
2024-02-22T16:08:56.747Z,1.10
2024-02-22T16:11:42.417Z,1.40
2024-02-22T16:14:28.606Z,1.30
2024-02-22T16:17:14.242Z,1.20
2024-02-22T16:20:03.380Z,1.15
2024-02-22T16:22:48.928Z,1.20
2024-02-22T16:25:34.589Z,1.10
2024-02-22T16:28:21.507Z,1.30
2024-02-22T16:31:12.880Z,0.95
2024-02-22T16:33:59.535Z,0.88
2024-02-22T16:36:45.166Z,1.02
2024-02-22T16:39:37.762Z,1.08
2024-02-22T16:42:26.599Z,0.80
2024-02-22T16:45:12.091Z,0.60
2024-02-22T16:47:57.402Z,0.70
2024-02-22T16:50:47.673Z,0.90
2024-02-22T16:53:32.839Z,0.77
2024-02-22T16:56:18.511Z,0.60
2024-02-22T16:59:05.304Z,0.70
2024-02-22T17:01:53.341Z,0.70
2024-02-22T17:04:38.651Z,0.90
2024-02-22T17:07:24.262Z,1.00
2024-02-22T17:10:10.372Z,0.88
2024-02-22T17:12:55.613Z,0.70
2024-02-22T17:18:23.055Z,0.70
2024-02-22T17:21:15.189Z,1.00
2024-02-22T17:26:46.254Z,1.17
2024-02-22T17:29:31.395Z,2.35
2024-02-22T17:32:16.533Z,1.92
2024-02-22T17:35:03.199Z,2.50
2024-02-22T17:37:48.929Z,2.20
2024-02-22T17:40:34.805Z,1.85
2024-02-22T17:43:20.408Z,2.10
2024-02-22T17:46:06.306Z,2.10
2024-02-22T17:48:55.946Z,2.17
2024-02-22T17:51:50.144Z,4.28
2024-02-22T17:54:41.007Z,2.95
2024-02-22T17:57:27.189Z,2.65
2024-02-22T18:00:13.830Z,1.70
2024-02-22T18:03:03.508Z,2.17
2024-02-22T18:05:50.289Z,2.35
2024-02-22T18:08:38.334Z,1.42
2024-02-22T18:11:24.085Z,1.67
2024-02-22T18:14:09.351Z,1.33
2024-02-22T18:16:55.212Z,1.08
2024-02-22T18:19:40.886Z,1.10
2024-02-22T18:22:27.726Z,1.30
2024-02-22T18:25:12.944Z,1.38
2024-02-22T18:27:58.316Z,1.17
2024-02-22T18:30:45.057Z,1.30
2024-02-22T18:33:30.805Z,1.30
2024-02-22T18:36:17.692Z,1.40
2024-02-22T18:39:03.019Z,1.20
2024-02-22T18:41:48.593Z,1.20
2024-02-22T18:44:35.862Z,1.10
2024-02-22T18:47:21.442Z,1.17
2024-02-22T18:50:07.413Z,1.42
2024-02-22T18:52:52.817Z,1.33
2024-02-22T18:55:41.297Z,1.40
2024-02-22T18:58:26.697Z,1.73
2024-02-22T19:01:15.006Z,2.13
2024-02-22T19:04:00.966Z,1.85
2024-02-22T19:06:46.690Z,1.63
2024-02-22T19:09:32.506Z,1.90
2024-02-22T19:12:21.124Z,1.73
2024-02-22T19:15:09.560Z,2.38
2024-02-22T19:17:54.890Z,2.42
2024-02-22T19:20:40.393Z,2.72
2024-02-22T19:23:26.445Z,1.98
2024-02-22T19:26:12.681Z,2.10
2024-02-22T19:28:58.932Z,2.20
2024-02-22T19:31:44.053Z,1.83
2024-02-22T19:34:29.883Z,2.00
2024-02-22T19:37:15.050Z,1.88
2024-02-22T19:40:01.193Z,1.88
2024-02-22T19:42:47.059Z,1.80
2024-02-22T19:45:32.487Z,1.85
2024-02-22T19:48:18.090Z,1.95
2024-02-22T19:51:03.545Z,1.50
2024-02-22T19:53:49.637Z,1.52
2024-02-22T19:56:34.979Z,1.73
2024-02-22T19:59:20.068Z,1.17
2024-02-22T20:02:08.291Z,1.60
2024-02-22T20:04:53.937Z,1.40
2024-02-22T20:07:40.630Z,1.30
2024-02-22T20:10:27.331Z,1.70
2024-02-22T20:13:14.647Z,1.70
2024-02-22T20:15:59.973Z,2.45
2024-02-22T20:18:47.722Z,2.22
2024-02-22T20:21:35.491Z,2.10
2024-02-22T20:24:21.804Z,1.33
2024-02-22T20:27:07.168Z,1.45
2024-02-22T20:29:53.732Z,1.40
2024-02-22T20:32:40.027Z,1.63
2024-02-22T20:35:26.468Z,1.55
2024-02-22T20:38:12.316Z,1.40
2024-02-22T20:40:58.413Z,1.30
2024-02-22T20:43:44.033Z,1.58
2024-02-22T20:46:30.503Z,1.35
2024-02-22T20:49:16.200Z,1.30
2024-02-22T20:52:02.075Z,1.30
2024-02-22T20:54:48.076Z,1.30
2024-02-22T20:57:33.234Z,1.40
2024-02-22T21:00:18.772Z,1.10
2024-02-22T21:03:06.250Z,1.33
2024-02-22T21:05:51.870Z,1.02
2024-02-22T21:08:40.422Z,1.08
2024-02-22T21:11:26.298Z,0.95
2024-02-22T21:14:11.853Z,1.40
2024-02-22T21:16:57.559Z,1.58
2024-02-22T21:19:45.099Z,1.30
2024-02-22T21:22:30.858Z,1.08
2024-02-22T21:25:16.196Z,1.17
2024-02-22T21:28:01.600Z,1.30
2024-02-22T21:30:47.597Z,1.33
2024-02-22T21:33:32.996Z,1.30
2024-02-22T21:36:18.274Z,0.95
2024-02-22T21:39:07.124Z,0.80
2024-02-22T21:41:52.642Z,1.00
2024-02-22T21:44:37.716Z,0.80
2024-02-22T21:47:23.634Z,1.00
2024-02-22T21:50:09.916Z,1.00
2024-02-22T21:52:55.310Z,1.00
2024-02-22T21:55:41.953Z,0.95
2024-02-22T21:58:29.400Z,0.75
2024-02-22T22:01:14.637Z,0.93
2024-02-22T22:04:00.024Z,0.95
2024-02-22T22:06:45.369Z,0.90
2024-02-22T22:09:30.848Z,0.93
2024-02-22T22:12:16.355Z,1.25
2024-02-22T22:15:05.406Z,0.90
2024-02-22T22:17:50.834Z,1.20
2024-02-22T22:20:36.202Z,0.98
2024-02-22T22:23:22.149Z,1.27
2024-02-22T22:26:07.992Z,1.00
2024-02-22T22:28:53.728Z,1.13
2024-02-22T22:31:45.744Z,1.20
2024-02-22T22:34:33.541Z,1.40
2024-02-22T22:37:21.056Z,1.40
2024-02-22T22:40:11.303Z,1.25
2024-02-22T22:42:56.439Z,1.95
2024-02-22T22:45:41.813Z,1.40
2024-02-22T22:48:27.363Z,2.05
2024-02-22T22:51:13.302Z,1.60
2024-02-22T22:53:58.512Z,1.83
2024-02-22T22:56:43.581Z,1.90
2024-02-22T22:59:28.788Z,1.98
2024-02-22T23:02:14.348Z,2.13
2024-02-22T23:04:59.726Z,2.95
2024-02-22T23:07:47.973Z,1.90
2024-02-22T23:10:33.529Z,2.20
2024-02-22T23:13:18.966Z,1.67
2024-02-22T23:16:05.614Z,2.45
2024-02-22T23:18:50.904Z,2.45
2024-02-22T23:21:38.021Z,2.58
2024-02-22T23:24:23.671Z,1.80
2024-02-22T23:27:08.961Z,2.13
2024-02-22T23:29:54.135Z,2.50
2024-02-22T23:32:39.767Z,2.15
2024-02-22T23:35:25.626Z,3.78
2024-02-22T23:38:10.958Z,2.08
2024-02-22T23:41:10.072Z,2.15
2024-02-22T23:44:01.917Z,1.85
2024-02-22T23:46:47.477Z,2.58
2024-02-22T23:49:33.804Z,2.00
2024-02-22T23:52:18.861Z,2.42
2024-02-22T23:55:05.172Z,2.13
2024-02-22T23:57:50.627Z,1.92
